Latest Weather Observations for Norah Head

IDN60801

Issued at 5:12 pm EDT Tuesday 26 March 2019 (issued every 10 minutes, with the page automatically refreshed every 10 minutes)

About weather observations | Map of weather stations | Latest weather observations for NSW | Other Formats
Station Details ID: 061366 Name: NORAH HEAD AWS Lat: -33.28 Lon: 151.58 Height: 18.8 m
Data from the previous 72 hours. | See also: Recent months at Norah Head
Date/Time
EDT
Temp
°C
App
Temp
°C
Dew
Point
°C
Rel
Hum
%
Delta-T
°C
Wind Press
QNH
hPa
Press
MSL
hPa
Rain since
9am
mm
Dir  Spd
km/h
Gust
km/h
Spd
kts
Gust
kts
26/05:00pm 23.7 18.5 11.7 47 6.8 S 30 33 16 18 1015.4 1015.3 0.2
26/04:30pm 23.8 19.2 12.4 48 6.5 S 28 32 15 17 1015.2 1015.1 0.2
26/04:00pm 23.7 18.6 13.0 51 6.2 S 32 35 17 19 1015.1 1015.0 0.2
26/03:30pm 24.1 19.9 13.6 52 6.1 S 28 33 15 18 1015.0 1014.9 0.2
26/03:00pm 24.7 21.4 13.9 51 6.4 SSE 24 28 13 15 1015.0 1014.9 0.2
26/02:30pm 25.2 23.6 11.7 43 7.7 SSW 11 19 6 10 1015.0 1014.9 0.2
26/02:00pm 25.4 24.1 11.2 41 8.0 WSW 9 17 5 9 1015.0 1014.9 0.2
26/01:30pm 24.6 23.0 10.1 40 8.0 W 9 17 5 9 1015.3 1015.2 0.2
26/01:00pm 24.3 22.7 11.6 45 7.2 W 11 22 6 12 1015.3 1015.2 0.2
26/12:30pm 23.2 21.6 11.6 48 6.5 WSW 11 20 6 11 1016.2 1016.1 0.2
26/12:00pm 22.7 21.4 11.4 49 6.3 SW 9 19 5 10 1016.6 1016.5 0.2
26/11:30am 22.8 22.0 11.8 50 6.2 W 7 15 4 8 1016.2 1016.1 0.0
26/11:00am 22.2 20.3 11.9 52 5.8 W 13 22 7 12 1015.9 1015.8 0.0
26/10:30am 21.5 20.2 12.6 57 5.0 W 11 22 6 12 1015.7 1015.6 0.0
26/10:00am 20.4 19.1 12.6 61 4.4 W 11 22 6 12 1015.6 1015.5 0.0
26/09:30am 20.2 20.4 14.8 71 3.2 W 7 15 4 8 1015.6 1015.5 0.0
26/09:00am 19.8 20.7 16.1 79 2.2 WSW 6 9 3 5 1015.4 1015.3 2.8
26/08:30am 19.4 20.1 16.2 82 1.9 WSW 7 9 4 5 1015.2 1015.1 2.8
26/08:00am 19.1 19.9 17.2 89 1.2 WSW 9 13 5 7 1015.0 1014.9 2.8
26/07:30am 19.2 19.9 17.0 87 1.3 SW 9 13 5 7 1014.6 1014.5 2.8
26/07:00am 18.4 18.8 16.4 88 1.2 SW 9 13 5 7 1014.0 1013.9 2.8
26/06:30am 19.4 21.2 18.7 96 0.4 WSW 7 11 4 6 1013.8 1013.7 2.8
26/06:00am 19.6 21.6 19.1 97 0.3 SSW 7 9 4 5 1013.4 1013.3 2.8
26/05:30am 19.3 22.5 18.8 97 0.3 CALM 0 6 0 3 1013.2 1013.1 2.8
26/05:00am 19.2 21.8 18.5 96 0.4 W 2 4 1 2 1013.3 1013.2 2.8
26/04:30am 19.7 21.8 19.0 96 0.4 WSW 6 11 3 6 1013.5 1013.4 2.0
26/04:00am 19.7 21.8 19.0 96 0.4 SW 6 11 3 6 1013.2 1013.1 2.0
26/03:30am 19.7 20.7 18.7 94 0.6 WSW 11 17 6 9 1013.2 1013.1 2.0
26/03:00am 20.2 22.2 19.2 94 0.6 WSW 7 13 4 7 1012.9 1012.8 1.6
26/02:30am 21.3 22.4 18.9 86 1.5 W 11 22 6 12 1012.8 1012.7 0.8
26/02:00am 22.5 24.7 19.3 82 2.0 WNW 6 9 3 5 1012.4 1012.3 0.0
26/01:30am 22.6 24.6 19.2 81 2.2 W 7 11 4 6 1012.3 1012.2 0.0
26/01:00am 22.9 24.4 18.9 78 2.5 SW 9 15 5 8 1012.3 1012.2 0.0
26/12:30am 23.4 24.5 18.9 76 2.9 WSW 11 17 6 9 1012.0 1011.9 0.0
26/12:00am 23.9 25.8 18.5 72 3.4 WNW 6 11 3 6 1011.9 1011.8 0.0
 
Date/Time
EDT
Temp
°C
App
Temp
°C
Dew
Point
°C
Rel
Hum
%
Delta-T
°C
Wind Press
QNH
hPa
Press
MSL
hPa
Rain since
9am
mm
Dir  Spd
km/h
Gust
km/h
Spd
kts
Gust
kts
25/11:30pm 24.4 26.2 18.8 71 3.6 NW 7 17 4 9 1011.6 1011.5 0.0
25/11:00pm 24.0 25.5 18.9 73 3.2 NW 9 19 5 10 1011.5 1011.4 0.0
25/10:30pm 23.8 25.3 18.9 74 3.1 NW 9 15 5 8 1011.5 1011.4 0.0
25/10:00pm 24.2 25.5 19.3 74 3.1 NNW 11 15 6 8 1011.3 1011.2 0.0
25/09:30pm 24.5 23.6 19.8 75 3.0 NNW 24 30 13 16 1011.0 1010.9 0.0
25/09:00pm 24.8 22.7 19.8 74 3.2 N 30 35 16 19 1010.8 1010.7 0.0
25/08:30pm 24.6 22.9 20.5 78 2.7 N 30 32 16 17 1010.2 1010.1 0.0
25/08:00pm 24.4 24.3 20.7 80 2.4 N 22 26 12 14 1010.0 1009.9 0.0
25/07:30pm 24.3 24.5 20.6 80 2.4 N 20 26 11 14 1010.0 1009.9 0.0
25/07:00pm 24.2 24.2 20.9 82 2.2 NNE 22 26 12 14 1009.9 1009.8 0.0
25/06:30pm 24.5 24.9 19.8 75 3.0 NNW 17 22 9 12 1010.1 1010.0 0.0
25/06:00pm 24.6 23.6 20.5 78 2.7 N 26 32 14 17 1009.4 1009.3 0.0
25/05:30pm 24.4 24.7 20.5 79 2.5 N 19 20 10 11 1008.8 1008.8 0.0
25/05:00pm 24.4 25.0 20.3 78 2.7 N 17 24 9 13 1008.3 1008.3 0.0
25/04:30pm 24.4 24.0 20.1 77 2.8 N 22 26 12 14 1008.6 1008.6 0.0
25/04:00pm 24.7 23.7 20.4 77 2.8 N 26 33 14 18 1008.6 1008.6 0.0
25/03:30pm 24.7 22.1 20.0 75 3.0 N 33 41 18 22 1008.6 1008.6 0.0
25/03:00pm 24.2 24.2 20.1 78 2.7 NNW 20 28 11 15 1009.0 1009.0 0.0
25/02:30pm 24.1 23.2 20.6 81 2.3 N 26 32 14 17 1009.2 1009.2 0.0
25/02:00pm 24.0 24.0 21.7 87 1.5 N 24 30 13 16 1009.0 1009.0 0.0
25/01:30pm 24.2 26.5 21.3 84 1.9 NNW 11 17 6 9 1009.2 1009.2 0.0
25/01:00pm 24.0 26.7 20.7 82 2.2 NW 7 15 4 8 1009.8 1009.7 0.0
25/12:30pm 23.4 22.4 20.5 84 1.9 NNW 26 37 14 20 1009.2 1009.2 0.0
25/12:00pm 22.4 21.0 20.5 89 1.2 N 28 35 15 19 1009.6 1009.5 0.0
25/11:30am 22.0 21.2 20.1 89 1.2 NNW 24 32 13 17 1010.1 1010.0 0.0
25/11:00am 21.4 22.3 19.3 88 1.3 NW 13 26 7 14 1010.6 1010.5 0.0
25/10:30am 20.9 22.9 19.2 90 1.1 WNW 7 17 4 9 1011.3 1011.2 0.0
25/10:00am 20.7 22.7 19.2 91 0.9 WNW 7 13 4 7 1011.3 1011.2 0.0
25/09:30am 20.5 22.3 18.8 90 1.1 W 7 13 4 7 1011.2 1011.1 0.0
25/09:00am 20.4 21.4 18.7 90 1.1 W 11 20 6 11 1011.6 1011.5 7.6
25/08:30am 20.9 22.0 19.6 92 0.8 WSW 13 22 7 12 1011.5 1011.4 7.6
25/08:00am 21.3 23.2 20.6 96 0.5 WSW 11 17 6 9 1011.5 1011.4 7.6
25/07:30am 21.5 23.4 20.5 94 0.6 SW 11 19 6 10 1011.3 1011.2 7.2
25/07:00am 22.2 24.5 21.4 95 0.5 SW 11 15 6 8 1011.2 1011.1 4.2
25/06:30am 22.4 25.1 21.4 94 0.7 SW 9 15 5 8 1010.7 1010.6 3.6
25/06:13am 23.1 25.4 21.4 90 1.1 WSW 11 19 6 10 1010.6 1010.5 0.0
25/06:00am 23.1 25.9 20.8 87 1.5 SW 7 13 4 7 1008.5 1008.5 0.0
25/05:30am 23.0 25.4 20.1 84 1.9 SW 7 13 4 7 1008.4 1008.4 0.0
25/05:00am 22.7 26.4 20.8 89 1.2 W 2 7 1 4 1008.6 1008.6 0.0
25/04:30am 22.7 26.1 20.2 86 1.6 W 2 6 1 3 1009.0 1009.0 0.0
25/04:00am 22.9 26.4 20.4 86 1.6 WNW 2 6 1 3 1008.5 1008.5 0.0
25/03:30am 23.1 25.5 20.8 87 1.5 N 9 11 5 6 1008.4 1008.4 0.0
25/03:00am 23.2 26.0 20.9 87 1.5 NW 7 11 4 6 1009.6 1009.5 0.0
25/02:30am 23.3 24.0 20.4 84 1.9 N 17 19 9 10 1009.0 1009.0 0.0
25/02:00am 23.4 24.0 21.1 87 1.5 N 19 20 10 11 1009.1 1009.1 0.0
25/01:30am 23.5 25.1 21.4 88 1.4 N 15 20 8 11 1009.9 1009.8 0.0
25/01:00am 23.5 26.2 21.4 88 1.4 NNW 9 13 5 7 1010.3 1010.2 0.0
25/12:30am 23.6 26.8 21.7 89 1.3 NNW 7 15 4 8 1010.7 1010.6 0.0
25/12:00am 23.6 24.7 21.9 90 1.1 N 19 22 10 12 1011.0 1010.9 0.0
 
Date/Time
EDT
Temp
°C
App
Temp
°C
Dew
Point
°C
Rel
Hum
%
Delta-T
°C
Wind Press
QNH
hPa
Press
MSL
hPa
Rain since
9am
mm
Dir  Spd
km/h
Gust
km/h
Spd
kts
Gust
kts
24/11:30pm 23.8 25.6 23.3 97 0.3 N 19 20 10 11 1011.2 1011.1 0.0
24/11:00pm 24.2 26.4 24.2 100 0.0 N 20 24 11 13 1011.2 1011.1 0.0
24/10:30pm 24.4 27.1 24.2 99 0.1 NNE 17 20 9 11 1011.1 1011.0 0.0
24/10:00pm 23.9 28.4 23.0 95 0.6 NNW 4 11 2 6 1011.7 1011.6 0.0
24/09:30pm 24.2 29.6 23.2 94 0.7 CALM 0 4 0 2 1011.7 1011.6 0.0
24/09:00pm 24.3 29.6 23.1 93 0.8 CALM 0 0 0 0 1011.7 1011.6 0.0
24/08:30pm 24.6 28.8 23.4 93 0.8 SSW 7 15 4 8 1011.5 1011.4 0.0
24/08:00pm 24.8 28.2 23.4 92 1.0 SSW 11 17 6 9 1011.0 1010.9 0.0
24/07:30pm 24.7 26.3 22.8 89 1.3 SSW 19 26 10 14 1010.5 1010.4 0.0
24/07:00pm 24.8 27.1 22.7 88 1.4 SW 15 20 8 11 1010.4 1010.3 0.0
24/06:30pm 24.9 28.8 23.0 89 1.3 SW 7 11 4 6 1009.8 1009.7 0.0
24/06:00pm 25.2 29.1 22.5 85 1.8 SSW 6 9 3 5 1009.6 1009.5 0.0
24/05:30pm 25.8 30.0 22.5 82 2.2 SSW 4 6 2 3 1009.6 1009.5 0.0
24/05:00pm 26.4 30.5 22.9 81 2.4 SSW 6 9 3 5 1009.6 1009.5 0.0
24/04:30pm 26.3 29.5 22.4 79 2.6 SSW 9 9 5 5 1009.8 1009.7 0.0
24/04:00pm 26.7 30.4 22.3 77 3.0 S 6 6 3 3 1010.0 1009.9 0.0
24/03:30pm 26.5 30.0 22.1 77 3.0 SE 7 9 4 5 1010.0 1009.9 0.0
24/03:00pm 26.9 30.2 22.5 77 3.0 ESE 9 9 5 5 1010.3 1010.2 0.0
24/02:30pm 26.9 30.1 22.3 76 3.1 ESE 9 11 5 6 1010.7 1010.6 0.0
24/02:00pm 26.5 29.5 21.9 76 3.1 E 9 11 5 6 1010.7 1010.6 0.0
24/01:30pm 26.9 30.3 22.7 78 2.8 E 9 11 5 6 1011.0 1010.9 0.0
24/01:00pm 26.8 29.9 22.2 76 3.1 E 9 11 5 6 1011.5 1011.4 0.0
24/12:30pm 28.0 31.1 22.9 74 3.5 SSE 11 15 6 8 1011.3 1011.2 0.0
24/12:00pm 27.8 30.7 23.2 76 3.1 S 13 15 7 8 1011.4 1011.3 0.0
24/11:30am 27.5 31.2 23.3 78 2.9 S 9 13 5 7 1011.6 1011.5 0.0
24/11:00am 26.1 28.8 22.2 79 2.6 S 11 13 6 7 1011.7 1011.6 0.0
24/10:30am 26.1 29.3 22.4 80 2.5 SSW 9 11 5 6 1011.6 1011.5 0.0
24/10:00am 25.4 28.3 21.7 80 2.5 SSW 9 11 5 6 1011.5 1011.4 0.0
24/09:30am 24.8 28.1 21.5 82 2.2 S 6 7 3 4 1011.5 1011.4 0.0
24/09:00am 23.7 27.5 21.6 88 1.4 SSW 4 7 2 4 1011.5 1011.4 2.4
24/08:30am 23.0 26.3 21.5 91 1.0 SSW 6 7 3 4 1011.3 1011.2 2.4
24/08:00am 22.2 26.0 21.0 93 0.8 NNE 2 4 1 2 1011.2 1011.1 2.4
24/07:30am 21.3 25.1 20.1 93 0.8 CALM 0 0 0 0 1011.0 1010.9 2.4
24/07:00am 20.8 23.9 19.6 93 0.8 N 2 4 1 2 1010.6 1010.5 2.4
24/06:30am 20.8 24.3 19.6 93 0.8 CALM 0 4 0 2 1010.6 1010.5 2.4
24/06:00am 20.8 23.9 19.5 92 0.8 NNW 2 6 1 3 1010.4 1010.3 2.4
24/05:30am 20.7 24.2 19.5 93 0.8 CALM 0 0 0 0 1010.4 1010.3 2.4
24/05:00am 20.5 23.8 19.2 92 0.8 CALM 0 0 0 0 1010.6 1010.5 2.4
24/04:30am 20.6 23.2 19.3 92 0.8 W 4 7 2 4 1010.6 1010.5 2.4
24/04:00am 20.6 23.9 19.1 91 0.9 CALM 0 2 0 1 1010.5 1010.4 2.4
24/03:30am 20.7 23.4 19.4 92 0.8 WNW 4 9 2 5 1010.8 1010.7 2.4
24/03:00am 21.4 22.0 20.2 93 0.8 NNW 17 22 9 12 1010.9 1010.8 2.4
24/02:30am 20.9 21.8 20.1 95 0.5 NNW 15 20 8 11 1011.3 1011.2 2.4
24/02:00am 21.2 22.5 20.2 94 0.6 NNW 13 17 7 9 1011.7 1011.6 2.4
24/01:30am 21.8 21.9 20.4 92 0.9 N 20 30 11 16 1012.2 1012.1 2.4
24/01:00am 22.0 21.2 20.8 93 0.8 N 26 32 14 17 1012.3 1012.2 2.4
24/12:30am 21.9 22.4 21.2 96 0.5 N 20 24 11 13 1012.4 1012.3 2.4
24/12:00am 21.7 22.4 21.5 99 0.1 N 20 24 11 13 1012.6 1012.5 2.4
 
Date/Time
EDT
Temp
°C
App
Temp
°C
Dew
Point
°C
Rel
Hum
%
Delta-T
°C
Wind Press
QNH
hPa
Press
MSL
hPa
Rain since
9am
mm
Dir  Spd
km/h
Gust
km/h
Spd
kts
Gust
kts
23/11:30pm 22.0 21.0 22.0 100 0.0 NNE 30 35 16 19 1012.3 1012.2 2.2
23/11:00pm 22.0 19.3 22.0 100 0.0 NNE 39 46 21 25 1012.8 1012.7 2.2
23/10:30pm 23.5 22.4 23.5 100 0.0 NNE 35 43 19 23 1013.2 1013.1 2.0
23/10:23pm 23.9 24.4 23.9 100 0.0 NNE 28 37 15 20 1013.3 1013.2 1.6
23/10:00pm 24.4 27.9 23.5 95 0.6 ESE 11 15 6 8 1013.2 1013.1 0.8
23/09:30pm 24.4 25.5 23.0 92 0.9 ENE 22 26 12 14 1011.8 1011.7 0.0
23/09:00pm 24.5 25.9 22.6 89 1.3 E 19 22 10 12 1011.8 1011.7 0.0
23/08:30pm 24.4 27.2 22.3 88 1.4 SE 11 13 6 7 1012.9 1012.8 0.0
23/08:00pm 24.4 26.2 21.9 86 1.7 ENE 15 17 8 9 1011.5 1011.4 0.0
23/07:30pm 24.4 26.9 21.7 85 1.8 E 11 15 6 8 1011.2 1011.1 0.0
23/07:00pm 24.1 24.9 21.4 85 1.8 NE 19 20 10 11 1010.8 1010.7 0.0
23/06:30pm 24.2 24.8 21.1 83 2.0 ENE 19 22 10 12 1010.6 1010.5 0.0
23/06:00pm 24.6 25.2 21.3 82 2.2 NE 20 22 11 12 1010.3 1010.2 0.0
23/05:30pm 25.2 25.6 20.9 77 2.8 ENE 20 22 11 12 1010.2 1010.1 0.0

Other formats

Comma delimited format used in spreadsheet applications
http://www.bom.gov.au/fwo/IDN60801/IDN60801.95770.axf

JavaScript Object Notation format (JSON) in row-major order
http://www.bom.gov.au/fwo/IDN60801/IDN60801.95770.json

Data quality

Most of these data are generated automatically and are frequently updated. Quality checks on data are not normally performed. It is possible for incorrect values to appear. Refer to information at About Latest Weather Observations and please check the disclaimer before using these data.